Terminal Aerodrome Forecast
Issued by NWS

Home | Current Version | Previous Version | Text Only | Print | Product List | Glossary On
Versions: 1 2 3 4 5 6 7 8 9 10 11
878
FTUS42 TJSJ 082347
TAFNCM
TAF
TNCM 082347Z 0900/0924 12011KT P6SM SCT018
     FM091800 13013KT P6SM SCT020 SCT030 SCT050=

USA.gov is the U.S. government's official web portal to all federal, state and local government web resources and services.